createdAt,value
2018-07-22T00:01:48.093Z,3.77
2018-07-22T00:04:16.359Z,3.80
2018-07-22T00:06:44.627Z,3.63
2018-07-22T00:09:13.709Z,3.40
2018-07-22T00:11:42.063Z,3.67
2018-07-22T00:14:10.390Z,3.50
2018-07-22T00:16:38.633Z,3.67
2018-07-22T00:19:06.958Z,3.53
2018-07-22T00:21:35.220Z,3.23
2018-07-22T00:24:03.502Z,3.20
2018-07-22T00:26:31.803Z,3.30
2018-07-22T00:29:00.056Z,3.40
2018-07-22T00:31:28.357Z,3.07
2018-07-22T00:33:56.623Z,3.33
2018-07-22T00:36:24.909Z,3.40
2018-07-22T00:38:53.263Z,3.30
2018-07-22T00:41:21.603Z,4.00
2018-07-22T00:43:49.883Z,3.57
2018-07-22T00:46:18.161Z,3.73
2018-07-22T00:48:46.445Z,4.00
2018-07-22T00:51:14.709Z,3.63
2018-07-22T00:53:42.969Z,4.00
2018-07-22T00:56:11.232Z,3.70
2018-07-22T00:58:39.495Z,4.00
2018-07-22T01:01:07.759Z,3.97
2018-07-22T01:03:36.347Z,4.23
2018-07-22T01:06:04.600Z,3.67
2018-07-22T01:08:32.867Z,4.33
2018-07-22T01:11:01.127Z,4.47
2018-07-22T01:13:29.403Z,4.70
2018-07-22T01:15:57.683Z,4.60
2018-07-22T01:18:25.691Z,4.17
2018-07-22T01:20:53.963Z,4.40
2018-07-22T01:23:22.215Z,4.23
2018-07-22T01:25:50.535Z,4.43
2018-07-22T01:28:18.805Z,4.03
2018-07-22T01:30:47.093Z,4.47
2018-07-22T01:33:15.373Z,4.10
2018-07-22T01:35:43.655Z,4.90
2018-07-22T01:38:11.939Z,4.53
2018-07-22T01:40:40.188Z,4.20
2018-07-22T01:43:08.471Z,4.33
2018-07-22T01:45:36.717Z,4.23
2018-07-22T01:48:04.975Z,4.30
2018-07-22T01:50:33.227Z,4.47
2018-07-22T01:53:01.243Z,3.90
2018-07-22T01:55:29.509Z,4.30
2018-07-22T01:57:57.806Z,4.30
2018-07-22T02:00:26.044Z,3.97
2018-07-22T02:02:54.064Z,4.10
2018-07-22T02:05:22.328Z,4.07
2018-07-22T02:07:50.587Z,4.60
2018-07-22T02:10:18.844Z,4.37
2018-07-22T02:12:47.180Z,3.73
2018-07-22T02:15:15.432Z,4.23
2018-07-22T02:17:43.688Z,3.97
2018-07-22T02:20:12.042Z,3.90
2018-07-22T02:22:40.307Z,3.80
2018-07-22T02:25:08.563Z,4.10
2018-07-22T02:27:36.823Z,3.80
2018-07-22T02:30:05.286Z,3.83
2018-07-22T02:32:33.656Z,3.70
2018-07-22T02:35:01.910Z,4.27
2018-07-22T02:37:30.155Z,3.90
2018-07-22T02:39:58.431Z,4.00
2018-07-22T02:42:26.696Z,4.13
2018-07-22T02:44:54.965Z,4.10
2018-07-22T02:47:23.232Z,3.70
2018-07-22T02:49:51.504Z,4.17
2018-07-22T02:52:19.767Z,4.07
2018-07-22T02:54:47.769Z,4.23
2018-07-22T02:57:16.044Z,3.70
2018-07-22T02:59:44.305Z,4.00
2018-07-22T03:02:12.564Z,4.23
2018-07-22T03:04:40.900Z,3.73
2018-07-22T03:07:09.171Z,4.63
2018-07-22T03:09:37.453Z,4.60
2018-07-22T03:12:05.716Z,5.40
2018-07-22T03:14:33.984Z,4.83
2018-07-22T03:17:02.228Z,4.87
2018-07-22T03:19:30.491Z,5.23
2018-07-22T03:21:58.744Z,4.20
2018-07-22T03:24:26.747Z,4.57
2018-07-22T03:26:55.004Z,4.57
2018-07-22T03:29:22.987Z,4.73
2018-07-22T03:31:51.288Z,4.43
2018-07-22T03:34:19.540Z,4.73
2018-07-22T03:36:47.796Z,4.53
2018-07-22T03:39:16.049Z,5.20
2018-07-22T03:41:44.318Z,5.33
2018-07-22T03:44:12.602Z,5.50
2018-07-22T03:46:40.876Z,5.33
2018-07-22T03:49:09.121Z,5.77
2018-07-22T03:51:37.392Z,6.63
2018-07-22T03:54:05.660Z,6.90
2018-07-22T03:56:33.923Z,5.90
2018-07-22T03:59:02.208Z,6.70
2018-07-22T04:01:30.476Z,5.87
2018-07-22T04:03:58.792Z,6.23
2018-07-22T04:06:27.038Z,5.67
2018-07-22T04:08:55.296Z,6.20
2018-07-22T04:11:23.283Z,6.03
2018-07-22T04:13:51.542Z,6.33
2018-07-22T04:16:19.824Z,5.73
2018-07-22T04:18:54.024Z,6.13
2018-07-22T04:21:23.681Z,6.20
2018-07-22T04:23:52.111Z,5.83
2018-07-22T04:26:21.221Z,5.90
2018-07-22T04:28:50.015Z,5.80
2018-07-22T04:31:18.295Z,6.23
2018-07-22T04:33:46.573Z,6.23
2018-07-22T04:36:14.589Z,6.27
2018-07-22T04:38:42.570Z,6.37
2018-07-22T04:41:10.854Z,7.07
2018-07-22T04:43:39.176Z,7.30
2018-07-22T04:46:07.448Z,7.17
2018-07-22T04:48:35.712Z,7.60
2018-07-22T04:51:03.969Z,6.97
2018-07-22T04:53:32.282Z,6.83
2018-07-22T04:56:00.526Z,7.13
2018-07-22T04:58:28.788Z,7.50
2018-07-22T05:00:57.076Z,7.77
2018-07-22T05:03:25.355Z,7.53
2018-07-22T05:05:53.637Z,7.40
2018-07-22T05:08:21.938Z,7.63
2018-07-22T05:10:50.281Z,7.37
2018-07-22T05:13:18.266Z,7.37
2018-07-22T05:15:46.535Z,6.80
2018-07-22T05:18:14.823Z,6.93
2018-07-22T05:20:43.189Z,6.10
2018-07-22T05:23:11.470Z,6.73
2018-07-22T05:25:39.728Z,6.30
2018-07-22T05:28:07.998Z,6.30
2018-07-22T05:30:36.248Z,6.40
2018-07-22T05:33:04.575Z,6.20
2018-07-22T05:35:32.574Z,6.13
2018-07-22T05:38:00.851Z,5.87
2018-07-22T05:40:29.149Z,6.63
2018-07-22T05:42:57.424Z,6.30
2018-07-22T05:45:25.701Z,6.23
2018-07-22T05:47:53.980Z,6.80
2018-07-22T05:50:22.247Z,6.23
2018-07-22T05:52:50.517Z,6.63
2018-07-22T05:55:18.505Z,6.30
2018-07-22T05:57:46.756Z,6.07
2018-07-22T06:00:15.137Z,6.13
2018-07-22T06:02:43.454Z,6.70
2018-07-22T06:05:11.721Z,6.47
2018-07-22T06:07:39.806Z,6.53
2018-07-22T06:10:08.188Z,6.10
2018-07-22T06:12:36.227Z,6.30
2018-07-22T06:15:05.957Z,5.83
2018-07-22T06:17:34.231Z,6.00
2018-07-22T06:20:02.516Z,6.53
2018-07-22T06:22:30.831Z,6.17
2018-07-22T06:24:59.103Z,6.00
2018-07-22T06:27:27.368Z,6.53
2018-07-22T06:29:55.645Z,6.33
2018-07-22T06:32:23.932Z,6.10
2018-07-22T06:34:52.192Z,6.33
2018-07-22T06:37:20.545Z,7.00
2018-07-22T06:39:48.833Z,6.60
2018-07-22T06:42:17.110Z,6.60
2018-07-22T06:44:45.371Z,7.23
2018-07-22T06:47:13.662Z,7.30
2018-07-22T06:49:41.927Z,7.40
2018-07-22T06:52:10.203Z,6.90
2018-07-22T06:54:38.453Z,7.10
2018-07-22T06:57:06.858Z,7.17
2018-07-22T06:59:35.079Z,7.43
2018-07-22T07:02:03.369Z,6.60
2018-07-22T07:04:31.650Z,7.80
2018-07-22T07:06:59.943Z,7.30
2018-07-22T07:09:28.253Z,6.97
2018-07-22T07:11:56.494Z,7.10
2018-07-22T07:14:24.803Z,7.00
2018-07-22T07:16:53.085Z,6.67
2018-07-22T07:19:21.391Z,6.30
2018-07-22T07:21:49.688Z,6.87
2018-07-22T07:24:17.994Z,7.13
2018-07-22T07:26:46.374Z,6.90
2018-07-22T07:29:14.563Z,6.37
2018-07-22T07:31:42.853Z,6.60
2018-07-22T07:34:11.124Z,7.67
2018-07-22T07:36:39.492Z,6.93
2018-07-22T07:39:08.459Z,7.00
2018-07-22T07:41:36.866Z,7.20
2018-07-22T07:44:05.145Z,6.77
2018-07-22T07:46:33.421Z,7.03
2018-07-22T07:49:01.692Z,7.43
2018-07-22T07:51:29.952Z,7.60
2018-07-22T07:53:58.243Z,7.83
2018-07-22T07:56:26.533Z,7.73
2018-07-22T07:58:54.817Z,7.80
2018-07-22T08:01:23.101Z,7.87
2018-07-22T08:03:51.497Z,7.50
2018-07-22T08:06:19.745Z,8.13
2018-07-22T08:08:48.025Z,7.73
2018-07-22T08:11:16.358Z,8.20
2018-07-22T08:13:44.632Z,9.07
2018-07-22T08:16:12.910Z,9.57
2018-07-22T08:18:41.176Z,10.40
2018-07-22T08:21:09.458Z,10.27
2018-07-22T08:23:37.743Z,12.63
2018-07-22T08:26:06.120Z,9.47
2018-07-22T08:28:50.511Z,8.73
2018-07-22T08:31:19.056Z,9.97
2018-07-22T08:33:47.323Z,10.13
2018-07-22T08:36:15.633Z,10.83
2018-07-22T08:38:43.892Z,10.63
2018-07-22T08:41:12.179Z,10.10
2018-07-22T08:43:40.470Z,9.47
2018-07-22T08:46:08.795Z,10.33
2018-07-22T08:48:37.060Z,8.87
2018-07-22T08:51:05.336Z,9.13
2018-07-22T08:53:33.650Z,9.53
2018-07-22T08:56:01.910Z,9.77
2018-07-22T08:58:30.170Z,9.97
2018-07-22T09:00:58.542Z,10.07
2018-07-22T09:03:26.838Z,8.97
2018-07-22T09:05:55.116Z,9.23
2018-07-22T09:08:23.128Z,9.27
2018-07-22T09:10:51.407Z,9.60
2018-07-22T09:13:19.727Z,9.77
2018-07-22T09:15:48.028Z,9.47
2018-07-22T09:18:16.328Z,9.30
2018-07-22T09:20:44.340Z,8.90
2018-07-22T09:23:12.428Z,8.90
2018-07-22T09:25:40.690Z,8.57
2018-07-22T09:28:08.964Z,9.40
2018-07-22T09:30:37.258Z,9.80
2018-07-22T09:33:05.568Z,9.27
2018-07-22T09:35:33.856Z,9.70
2018-07-22T09:38:02.135Z,8.53
2018-07-22T09:40:30.480Z,8.17
2018-07-22T09:42:58.764Z,9.37
2018-07-22T09:45:27.073Z,8.37
2018-07-22T09:47:55.328Z,8.10
2018-07-22T09:50:23.612Z,7.43
2018-07-22T09:52:51.912Z,7.97
2018-07-22T09:55:20.106Z,7.80
2018-07-22T09:57:48.424Z,7.87
2018-07-22T10:00:22.122Z,7.83
2018-07-22T10:02:50.157Z,8.23
2018-07-22T10:05:18.431Z,8.57
2018-07-22T10:07:46.716Z,8.23
2018-07-22T10:10:14.994Z,8.40
2018-07-22T10:12:43.284Z,9.23
2018-07-22T10:15:11.296Z,8.50
2018-07-22T10:17:40.116Z,8.87
2018-07-22T10:20:08.324Z,9.07
2018-07-22T10:22:36.607Z,8.57
2018-07-22T10:25:04.890Z,10.27
2018-07-22T10:27:33.187Z,9.00
2018-07-22T10:30:01.468Z,9.03
2018-07-22T10:32:29.744Z,8.43
2018-07-22T10:34:57.758Z,9.03
2018-07-22T10:37:26.112Z,7.40
2018-07-22T10:39:54.425Z,8.03
2018-07-22T10:42:22.712Z,7.97
2018-07-22T10:44:51.348Z,8.03
2018-07-22T10:47:19.629Z,11.20
2018-07-22T10:49:47.890Z,8.70
2018-07-22T10:52:16.244Z,8.33
2018-07-22T10:54:44.520Z,8.43
2018-07-22T10:57:12.859Z,8.23
2018-07-22T10:59:41.446Z,8.20
2018-07-22T11:02:09.783Z,7.90
2018-07-22T11:04:38.069Z,7.80
2018-07-22T11:07:06.362Z,7.40
2018-07-22T11:09:34.625Z,8.73
2018-07-22T11:12:02.901Z,8.30
2018-07-22T11:14:31.230Z,7.63
2018-07-22T11:16:59.503Z,7.73
2018-07-22T11:19:27.777Z,6.80
2018-07-22T11:21:56.060Z,7.70
2018-07-22T11:24:24.336Z,7.40
2018-07-22T11:26:52.623Z,7.53
2018-07-22T11:29:20.896Z,7.50
2018-07-22T11:31:49.202Z,7.30
2018-07-22T11:34:17.492Z,7.47
2018-07-22T11:36:45.852Z,6.50
2018-07-22T11:39:13.864Z,7.63
2018-07-22T11:41:42.136Z,7.57
2018-07-22T11:44:10.724Z,7.40
2018-07-22T11:46:39.728Z,6.97
2018-07-22T11:49:08.332Z,7.27
2018-07-22T11:51:37.408Z,6.53
2018-07-22T11:54:05.890Z,7.50
2018-07-22T11:56:34.192Z,7.33
2018-07-22T11:59:02.524Z,7.70
2018-07-22T12:01:30.828Z,7.33
2018-07-22T12:03:59.096Z,7.00
2018-07-22T12:06:27.400Z,7.53
2018-07-22T12:08:55.712Z,7.70
2018-07-22T12:11:23.992Z,7.57
2018-07-22T12:13:52.292Z,6.73
2018-07-22T12:16:20.558Z,6.83
2018-07-22T12:18:48.848Z,7.03
2018-07-22T12:21:17.232Z,7.07
2018-07-22T12:23:45.506Z,8.17
2018-07-22T12:26:13.841Z,7.23
2018-07-22T12:28:42.113Z,6.70
2018-07-22T12:31:10.382Z,7.37
2018-07-22T12:33:38.680Z,7.90
2018-07-22T12:36:08.248Z,7.20
2018-07-22T12:38:36.553Z,7.43
2018-07-22T12:41:04.824Z,7.57
2018-07-22T12:43:32.812Z,6.73
2018-07-22T12:46:01.138Z,7.40
2018-07-22T12:48:29.404Z,7.40
2018-07-22T12:50:57.673Z,6.80
2018-07-22T12:53:25.968Z,7.30
2018-07-22T12:55:54.264Z,6.80
2018-07-22T12:58:22.629Z,7.47
2018-07-22T13:00:50.936Z,7.30
2018-07-22T13:03:18.926Z,7.97
2018-07-22T13:05:47.214Z,7.73
2018-07-22T13:08:15.647Z,7.20
2018-07-22T13:10:43.929Z,7.47
2018-07-22T13:13:12.286Z,7.10
2018-07-22T13:15:40.523Z,7.73
2018-07-22T13:18:08.790Z,8.17
2018-07-22T13:20:37.067Z,7.40
2018-07-22T13:23:05.394Z,7.57
2018-07-22T13:25:33.689Z,7.23
2018-07-22T13:28:01.982Z,7.33
2018-07-22T13:30:29.998Z,7.23
2018-07-22T13:32:58.279Z,7.50
2018-07-22T13:35:26.559Z,6.67
2018-07-22T13:37:54.828Z,7.40
2018-07-22T13:40:23.148Z,7.00
2018-07-22T13:42:51.409Z,6.73
2018-07-22T13:45:20.997Z,7.00
2018-07-22T13:47:49.207Z,6.60
2018-07-22T13:50:17.496Z,7.30
2018-07-22T13:52:45.801Z,6.50
2018-07-22T13:55:14.093Z,23.67
2018-07-22T13:57:42.436Z,14.10
2018-07-22T14:00:10.762Z,15.67
2018-07-22T14:02:39.107Z,8.53
2018-07-22T14:05:07.391Z,7.60
2018-07-22T14:07:35.707Z,7.57
2018-07-22T14:10:04.112Z,7.30
2018-07-22T14:12:32.395Z,7.53
2018-07-22T14:15:00.407Z,7.93
2018-07-22T14:17:28.697Z,7.13
2018-07-22T14:19:57.219Z,7.17
2018-07-22T14:22:25.575Z,7.03
2018-07-22T14:24:53.849Z,7.03
2018-07-22T14:27:22.579Z,6.50
2018-07-22T14:29:50.854Z,7.43
2018-07-22T14:32:19.136Z,6.97
2018-07-22T14:34:47.661Z,6.63
2018-07-22T14:37:16.014Z,6.47
2018-07-22T14:39:44.472Z,7.07
2018-07-22T14:42:12.788Z,8.33
2018-07-22T14:44:41.064Z,6.60
2018-07-22T14:47:09.510Z,6.83
2018-07-22T14:49:37.392Z,6.80
2018-07-22T14:52:05.784Z,6.63
2018-07-22T14:54:34.089Z,6.43
2018-07-22T14:57:02.387Z,6.50
2018-07-22T14:59:30.691Z,9.70
2018-07-22T15:01:59.011Z,15.57
2018-07-22T15:04:27.328Z,7.03
2018-07-22T15:06:55.607Z,12.03
2018-07-22T15:09:23.893Z,11.77
2018-07-22T15:11:52.266Z,7.53
2018-07-22T15:14:20.623Z,9.93
2018-07-22T15:16:48.917Z,8.80
2018-07-22T15:19:17.197Z,11.57
2018-07-22T15:21:45.477Z,9.80
2018-07-22T15:24:13.767Z,15.33
2018-07-22T15:26:42.373Z,20.77
2018-07-22T15:29:10.710Z,19.30
2018-07-22T15:31:38.948Z,38.53
2018-07-22T15:34:08.174Z,143.87
2018-07-22T15:36:36.531Z,122.63
2018-07-22T15:39:07.895Z,116.50
2018-07-22T15:41:36.206Z,120.40
2018-07-22T15:44:04.525Z,94.63
2018-07-22T15:46:32.828Z,89.30
2018-07-22T15:49:01.093Z,46.97
2018-07-22T15:51:29.401Z,53.07
2018-07-22T15:53:57.687Z,41.60
2018-07-22T15:56:26.063Z,44.10
2018-07-22T15:58:54.355Z,31.43
2018-07-22T16:01:22.708Z,35.93
2018-07-22T16:03:50.999Z,46.57
2018-07-22T16:06:19.310Z,54.50
2018-07-22T16:08:47.598Z,44.93
2018-07-22T16:11:15.868Z,36.67
2018-07-22T16:13:44.183Z,36.37
2018-07-22T16:16:12.488Z,44.93
2018-07-22T16:18:40.858Z,32.33
2018-07-22T16:21:09.178Z,28.57
2018-07-22T16:23:37.499Z,33.80
2018-07-22T16:26:05.691Z,25.07
2018-07-22T16:28:33.975Z,21.50
2018-07-22T16:31:02.267Z,14.50
2018-07-22T16:33:30.568Z,20.43
2018-07-22T16:35:58.909Z,14.30
2018-07-22T16:38:27.167Z,12.83
2018-07-22T16:40:55.560Z,9.17
2018-07-22T16:43:23.869Z,12.00
2018-07-22T16:45:52.164Z,12.33
2018-07-22T16:48:20.443Z,9.90
2018-07-22T16:50:48.736Z,12.33
2018-07-22T16:53:17.008Z,7.40
2018-07-22T16:55:45.322Z,11.60
2018-07-22T16:58:13.643Z,20.97
2018-07-22T17:00:41.946Z,14.83
2018-07-22T17:03:10.239Z,11.30
2018-07-22T17:05:38.524Z,10.33
2018-07-22T17:08:06.825Z,7.77
2018-07-22T17:10:35.176Z,11.10
2018-07-22T17:13:03.440Z,15.23
2018-07-22T17:15:31.712Z,10.60
2018-07-22T17:17:59.998Z,8.43
2018-07-22T17:20:28.323Z,8.90
2018-07-22T17:22:56.288Z,11.27
2018-07-22T17:25:24.572Z,14.57
2018-07-22T17:27:52.852Z,17.20
2018-07-22T17:30:21.136Z,21.13
2018-07-22T17:32:49.432Z,14.03
2018-07-22T17:35:17.716Z,15.50
2018-07-22T17:37:46.028Z,15.17
2018-07-22T17:40:14.319Z,18.13
2018-07-22T17:42:42.625Z,15.07
2018-07-22T17:45:10.915Z,16.07
2018-07-22T17:47:39.190Z,14.30
2018-07-22T17:50:07.465Z,13.40
2018-07-22T17:52:35.770Z,15.87
2018-07-22T17:55:03.788Z,11.77
2018-07-22T17:57:31.846Z,15.10
2018-07-22T18:00:00.088Z,17.00
2018-07-22T18:02:28.374Z,12.40
2018-07-22T18:04:56.665Z,11.77
2018-07-22T18:07:24.684Z,12.07
2018-07-22T18:09:53.047Z,10.90
2018-07-22T18:12:21.340Z,10.77
2018-07-22T18:14:49.640Z,10.27
2018-07-22T18:17:17.970Z,13.50
2018-07-22T18:19:46.246Z,6.90
2018-07-22T18:22:14.550Z,7.77
2018-07-22T18:24:42.822Z,6.87
2018-07-22T18:27:11.091Z,6.60
2018-07-22T18:29:39.372Z,7.20
2018-07-22T18:32:07.664Z,6.50
2018-07-22T18:34:35.725Z,7.37
2018-07-22T18:37:04.217Z,7.77
2018-07-22T18:39:32.699Z,8.93
2018-07-22T18:42:00.731Z,6.60
2018-07-22T18:44:29.289Z,6.33
2018-07-22T18:46:57.865Z,7.13
2018-07-22T18:49:26.210Z,7.20
2018-07-22T18:51:54.536Z,6.97
2018-07-22T18:54:22.617Z,6.40
2018-07-22T18:56:50.891Z,7.97
2018-07-22T18:59:19.420Z,6.27
2018-07-22T19:01:48.015Z,6.90
2018-07-22T19:04:16.350Z,6.83
2018-07-22T19:06:44.687Z,6.80
2018-07-22T19:09:12.956Z,6.60
2018-07-22T19:11:41.645Z,7.07
2018-07-22T19:14:10.039Z,6.77
2018-07-22T19:16:38.424Z,6.83
2018-07-22T19:19:06.868Z,6.60
2018-07-22T19:21:35.179Z,6.63
2018-07-22T19:24:03.480Z,6.40
2018-07-22T19:26:31.809Z,6.67
2018-07-22T19:29:00.131Z,6.43
2018-07-22T19:31:28.539Z,6.77
2018-07-22T19:33:56.987Z,6.27
2018-07-22T19:36:25.318Z,6.93
2018-07-22T19:38:53.646Z,6.23
2018-07-22T19:41:21.731Z,7.03
2018-07-22T19:43:50.068Z,7.10
2018-07-22T19:46:18.707Z,7.07
2018-07-22T19:48:47.029Z,6.70
2018-07-22T19:51:15.400Z,6.63
2018-07-22T19:53:43.767Z,6.40
2018-07-22T19:56:12.021Z,6.80
2018-07-22T19:58:40.430Z,6.40
2018-07-22T20:01:08.726Z,6.50
2018-07-22T20:03:37.057Z,6.63
2018-07-22T20:06:05.763Z,6.13
2018-07-22T20:08:34.049Z,6.53
2018-07-22T20:11:02.409Z,6.77
2018-07-22T20:13:31.405Z,6.00
2018-07-22T20:15:59.717Z,6.40
2018-07-22T20:18:28.030Z,6.70
2018-07-22T20:20:56.427Z,6.50
2018-07-22T20:23:24.731Z,6.47
2018-07-22T20:25:53.049Z,6.17
2018-07-22T20:28:21.343Z,6.63
2018-07-22T20:30:49.663Z,6.70
2018-07-22T20:33:17.959Z,6.83
2018-07-22T20:35:46.009Z,6.90
2018-07-22T20:38:14.343Z,7.20
2018-07-22T20:40:42.738Z,6.87
2018-07-22T20:43:11.050Z,6.63
2018-07-22T20:45:39.344Z,7.33
2018-07-22T20:48:07.659Z,7.23
2018-07-22T20:50:35.966Z,6.77
2018-07-22T20:53:04.296Z,6.53
2018-07-22T20:55:32.687Z,6.83
2018-07-22T20:58:00.984Z,6.60
2018-07-22T21:00:29.260Z,6.60
2018-07-22T21:02:57.634Z,6.83
2018-07-22T21:05:25.918Z,7.27
2018-07-22T21:07:54.572Z,7.13
2018-07-22T21:10:22.852Z,6.90
2018-07-22T21:12:56.584Z,7.40
2018-07-22T21:15:24.867Z,9.30
2018-07-22T21:17:53.165Z,8.43
2018-07-22T21:20:21.798Z,8.40
2018-07-22T21:22:50.106Z,7.90
2018-07-22T21:25:18.654Z,6.87
2018-07-22T21:27:46.996Z,8.03
2018-07-22T21:30:15.750Z,8.13
2018-07-22T21:32:44.037Z,7.93
2018-07-22T21:35:12.315Z,7.00
2018-07-22T21:37:40.630Z,7.47
2018-07-22T21:40:08.917Z,7.33
2018-07-22T21:42:37.188Z,7.53
2018-07-22T21:45:06.469Z,7.10
2018-07-22T21:47:34.988Z,7.10
2018-07-22T21:50:03.330Z,7.20
2018-07-22T21:52:31.634Z,7.23
2018-07-22T21:54:59.896Z,7.47
2018-07-22T21:57:28.234Z,6.40
2018-07-22T21:59:56.528Z,7.93
2018-07-22T22:02:31.102Z,6.33
2018-07-22T22:04:59.580Z,7.40
2018-07-22T22:07:27.860Z,7.00
2018-07-22T22:09:56.188Z,6.47
2018-07-22T22:12:24.460Z,6.93
2018-07-22T22:14:52.744Z,7.07
2018-07-22T22:17:21.032Z,7.40
2018-07-22T22:19:49.311Z,7.27
2018-07-22T22:22:17.602Z,6.93
2018-07-22T22:24:45.895Z,7.17
2018-07-22T22:27:14.178Z,7.40
2018-07-22T22:29:42.603Z,7.00
2018-07-22T22:32:10.826Z,7.20
2018-07-22T22:34:39.102Z,6.87
2018-07-22T22:37:07.383Z,7.20
2018-07-22T22:39:35.671Z,7.60
2018-07-22T22:42:03.944Z,6.93
2018-07-22T22:44:32.228Z,7.60
2018-07-22T22:47:00.516Z,7.13
2018-07-22T22:49:28.802Z,7.50
2018-07-22T22:51:57.097Z,7.60
2018-07-22T22:54:25.379Z,6.83
2018-07-22T22:56:53.678Z,6.83
2018-07-22T22:59:22.938Z,7.60
2018-07-22T23:01:51.384Z,6.87
2018-07-22T23:04:19.645Z,6.97
2018-07-22T23:06:47.936Z,7.77
2018-07-22T23:09:16.404Z,6.90
2018-07-22T23:11:44.772Z,6.53
2018-07-22T23:14:13.050Z,7.23
2018-07-22T23:16:41.416Z,7.50
2018-07-22T23:19:09.688Z,7.03
2018-07-22T23:21:37.960Z,7.07
2018-07-22T23:24:06.238Z,7.23
2018-07-22T23:26:34.512Z,7.27
2018-07-22T23:29:03.004Z,7.20
2018-07-22T23:31:31.299Z,7.30
2018-07-22T23:33:59.596Z,7.47
2018-07-22T23:36:27.604Z,6.63
2018-07-22T23:38:55.889Z,6.93
2018-07-22T23:41:24.176Z,7.30
2018-07-22T23:43:52.443Z,6.93
2018-07-22T23:46:20.768Z,6.63
2018-07-22T23:48:49.044Z,6.50
2018-07-22T23:51:17.436Z,6.93
2018-07-22T23:53:45.793Z,7.23
2018-07-22T23:56:14.044Z,7.30
2018-07-22T23:58:42.303Z,7.30
